Ευχαριστούμε που συμβάλλετε στη διατήρηση της σελίδας μας.

Thank you for your donations, it really helps to maintain the page.

Meteo Stats And More

Στατιστικά Καιρού Και Άλλα






Δείκτης πυρκαγιάς (FWI)

Κάμερα Ρωμανού more information Romanos Cam


Ιστιοπλοικός Όμιλος Πάτρας more information Istioploikos Omilos Patras


Ραντάρ Κεραυνών more information blitzortung!


Ραντάρ Βροχής more information rain snow radar



Κοντινές Αναφορές METAR

  
LGRX - Araxos (civ/Afb), Greece
Απόσταση από τον σταθμό: ΔΝΔ 30km
Ενημερώθηκε: 23-06-2018 12:50
Κυρίως Αίθριος
Κυρίως Αίθριος  
 Άνεμος από Δ
Άνεμος: Δ 11 km/h
Θερμοκρασία:  28°C
Δείκτης θερμότητας:  29°C
Σημείο Δρόσου:  18°C
Υγρασία:  55%
Βαρόμετρο:  1013 hPa
Σύννεφα:  Κυρίως Αίθριος
Ορατότητα:  10 km
Λεπτομέρειες Σύννεφου:  Κυρίως Αίθριος 610 m
2018/06/23 09:50 LGRX 230950Z 27006KT 9999 FEW020 28/18 Q1013
LGAD - Andravida (civ/A, Greece
Απόσταση από τον σταθμό: ΝΔ 55km
Ενημερώθηκε: 23-06-2018 12:50
Κυρίως Αίθριος
Κυρίως Αίθριος  
 Άνεμος από ΒΔ
Άνεμος: ΒΔ 15 km/h
Θερμοκρασία:  28°C
Δείκτης θερμότητας:  28°C
Σημείο Δρόσου:  15°C
Υγρασία:  45%
Βαρόμετρο:  1013 hPa
Σύννεφα:  Κυρίως Αίθριος
Ορατότητα:  10 km
Λεπτομέρειες Σύννεφου:  Κυρίως Αίθριος 610 m
2018/06/23 09:50 LGAD 230950Z 31008KT 9999 FEW020 28/15 Q1013
LGZA - Zakinthos Airpor, Greece
Απόσταση από τον σταθμό: ΝΔ 95km
Ενημερώθηκε: 23-06-2018 12:50
Μερικώς Νεφελώδης
Μερικώς Νεφελώδης  
 Άνεμος από ΒΑ
Άνεμος: ΒΑ 9 km/h
Θερμοκρασία:  27°C
Δείκτης θερμότητας:  28°C
Σημείο Δρόσου:  19°C
Υγρασία:  62%
Βαρόμετρο:  1013 hPa
Σύννεφα:  Μερικώς Νεφελώδης
Ορατότητα:  10 km
Λεπτομέρειες Σύννεφου:  Μερικώς Νεφελώδης 610 m
2018/06/23 09:50 LGZA 230950Z 04005KT 9999 SCT020 27/19 Q1013
LGKF - Kefallinia, Greece
Απόσταση από τον σταθμό: Δ 110km
Ενημερώθηκε: 23-06-2018 12:50
Κυρίως Αίθριος
Κυρίως Αίθριος  
 Άνεμος από Δ
Άνεμος: Δ 11 km/h
Θερμοκρασία:  26°C
Σημείο Δρόσου:  20°C
Υγρασία:  70%
Βαρόμετρο:  1013 hPa
Σύννεφα:  Κυρίως Αίθριος
Ορατότητα:  10 km
Λεπτομέρειες Σύννεφου:  Κυρίως Αίθριος 427 m
Κυρίως Αίθριος 549 m
2018/06/23 09:50 LGKF 230950Z 26006KT 9999 FEW014 FEW018TCU 26/20 Q1013
LGPZ - Preveza/Aktion, Greece
Απόσταση από τον σταθμό: ΒΔ 114km
Ενημερώθηκε: 23-06-2018 12:50
Κυρίως Αίθριος
Κυρίως Αίθριος  
 Άνεμος από Δ
Άνεμος: Δ 13 km/h
Θερμοκρασία:  28°C
Δείκτης θερμότητας:  29°C
Σημείο Δρόσου:  20°C
Υγρασία:  62%
Βαρόμετρο:  1014 hPa
Σύννεφα:  Κυρίως Αίθριος
Ορατότητα:  10 km
Λεπτομέρειες Σύννεφου:  Κυρίως Αίθριος 549 m
2018/06/23 09:50 LGPZ 230950Z 28007KT 9999 FEW018 28/20 Q1014
LGKL - Kalamata (hel-Af, Greece
Απόσταση από τον σταθμό: Ν 132km
Ενημερώθηκε: 23-06-2018 12:50
Μερικώς Νεφελώδης
Μερικώς Νεφελώδης  
 Άνεμος από calm
Άνεμος: Άπνοια
Θερμοκρασία:  30°C
Σημείο Δρόσου:  13°C
Υγρασία:  35%
Βαρόμετρο:  1012 hPa
Σύννεφα:  Μερικώς Νεφελώδης
Ορατότητα:  10 km
Λεπτομέρειες Σύννεφου:  Κυρίως Αίθριος 610 m
Μερικώς Νεφελώδης 914 m
2018/06/23 09:50 LGKL 230950Z 00000KT 9999 FEW020 SCT030 30/13 Q1012
LGBL - Nea Anchialos, Greece
Απόσταση από τον σταθμό: ΒΑ 142km
Ενημερώθηκε: 23-06-2018 12:20
Κυρίως Αίθριος
Κυρίως Αίθριος  
 Άνεμος από Β
Άνεμος: Β 13 km/h
Θερμοκρασία:  30°C
Σημείο Δρόσου:  13°C
Υγρασία:  35%
Βαρόμετρο:  1011 hPa
Σύννεφα:  Κυρίως Αίθριος
Ορατότητα:  10 km
Λεπτομέρειες Σύννεφου:  Κυρίως Αίθριος 762 m
2018/06/23 09:20 LGBL 230920Z 01007KT 9999 FEW025 30/13 Q1011
LGEL - Elefsis (hel-Afb, Greece
Απόσταση από τον σταθμό: Α 158km
Ενημερώθηκε: 23-06-2018 12:50
Μερικώς Νεφελώδης
Μερικώς Νεφελώδης  
 Άνεμος από ΝΝΔ
Άνεμος: ΝΝΔ 20 km/h
Θερμοκρασία:  33°C
Σημείο Δρόσου:  15°C
Υγρασία:  34%
Βαρόμετρο:  1010 hPa
Σύννεφα:  Μερικώς Νεφελώδης
Ορατότητα:  10 km
Λεπτομέρειες Σύννεφου:  Μερικώς Νεφελώδης 762 m
2018/06/23 09:50 LGEL 230950Z 20011KT 9999 SCT025TCU 33/15 Q1010
LGIO - Ioannina, Greece
Απόσταση από τον σταθμό: ΒΒΔ 181km
Ενημερώθηκε: 23-06-2018 12:50
Συννεφιά
Συννεφιά  
 Άνεμος από ποικίλλει
Άνεμος: ποικίλλει 0 km/h
Θερμοκρασία:  21°C
Σημείο Δρόσου:  18°C
Υγρασία:  83%
Βαρόμετρο:  1015 hPa
Σύννεφα:  Συννεφιά
Ορατότητα:  10 km
Λεπτομέρειες Σύννεφου:  Κυρίως Αίθριος 457 m
Συννεφιά 2438 m
2018/06/23 09:50 LGIO 230950Z /////KT 9999 FEW015 OVC080 21/18 Q1015
LGSK - Skiathos Island, Greece
Απόσταση από τον σταθμό: ΒΑ 185km
Ενημερώθηκε: 23-06-2018 12:50
Κυρίως Αίθριος
Κυρίως Αίθριος  
 Άνεμος από ΒΒΔ
Άνεμος: ΒΒΔ 22 km/h, Ριπή: 41 km/h
Θερμοκρασία:  25°C
Σημείο Δρόσου:  15°C
Υγρασία:  54%
Βαρόμετρο:  1012 hPa
Σύννεφα:  Κυρίως Αίθριος
Ορατότητα:  10 km
Λεπτομέρειες Σύννεφου:  Κυρίως Αίθριος 610 m
2018/06/23 09:50 LGSK 230950Z 34012G22KT 9999 FEW020 25/15 Q1012
LGAV - Athens/Elef-Ven, Greece
Απόσταση από τον σταθμό: Α 195km
Ενημερώθηκε: 23-06-2018 12:20
Κυρίως Αίθριος
Κυρίως Αίθριος  
 Άνεμος από ΑΒΑ
Άνεμος: ΑΒΑ 19 km/h
Θερμοκρασία:  30°C
Σημείο Δρόσου:  14°C
Υγρασία:  38%
Βαρόμετρο:  1011 hPa
Σύννεφα:  Κυρίως Αίθριος
Ορατότητα:  10 km
Λεπτομέρειες Σύννεφου:  Κυρίως Αίθριος 610 m
2018/06/23 09:20 LGAV 230920Z 07010KT 030V100 9999 FEW020TCU 30/14 Q1011 NOSIG
LGKR - Ioannis Kapodist, Greece
Απόσταση από τον σταθμό: ΒΔ 221km
Ενημερώθηκε: 23-06-2018 12:20
Κυρίως Συννεφιά
Κυρίως Συννεφιά  
 Άνεμος από calm
Άνεμος: Άπνοια
Θερμοκρασία:  23°C
Σημείο Δρόσου:  20°C
Υγρασία:  83%
Βαρόμετρο:  1013 hPa
Σύννεφα:  Κυρίως Συννεφιά
Ορατότητα:  10 km
Λεπτομέρειες Σύννεφου:  Κυρίως Αίθριος 305 m
Μερικώς Νεφελώδης 1219 m
Κυρίως Συννεφιά 2438 m
2018/06/23 09:20 LGKR 230920Z 00000KT 9999 FEW010 SCT040 BKN080 23/20 Q1013 NOSIG

Script developed by  Saratoga-weather.org Προσαρμοσμένος για το πρότυπο του  Weerstation Leuven

Μπορείτε να βρείτε πληροφορίες καιρού μας και σε:


European Weather Network

WeatherCloud

Weather Underground

Hellas Meteo Network

AWEKAS

HAMweather, WeatherForYou, PWS Weather